createdAt,value
2018-09-24T00:05:18.347Z,70.20
2018-09-24T00:15:21.569Z,70.50
2018-09-24T00:25:24.815Z,69.80
2018-09-24T00:35:28.036Z,70.10
2018-09-24T00:45:31.261Z,71.40
2018-09-24T00:55:34.500Z,72.40
2018-09-24T01:05:37.748Z,73.50
2018-09-24T01:15:40.964Z,74.80
2018-09-24T01:25:45.522Z,74.60
2018-09-24T01:35:48.736Z,75.50
2018-09-24T01:45:51.978Z,74.60
2018-09-24T01:55:55.226Z,76.00
2018-09-24T02:05:58.474Z,77.40
2018-09-24T02:16:01.704Z,77.90
2018-09-24T02:26:04.997Z,78.10
2018-09-24T02:36:08.301Z,75.50
2018-09-24T02:46:11.603Z,75.80
2018-09-24T02:56:14.881Z,77.30
2018-09-24T03:06:18.097Z,79.00
2018-09-24T03:16:21.373Z,79.20
2018-09-24T03:26:24.881Z,79.40
2018-09-24T03:36:28.057Z,78.20
2018-09-24T03:46:31.362Z,76.60
2018-09-24T03:56:34.620Z,79.60
2018-09-24T04:06:43.309Z,79.90
2018-09-24T04:16:51.832Z,80.70
2018-09-24T04:27:00.341Z,80.00
2018-09-24T04:37:08.995Z,77.90
2018-09-24T04:47:17.725Z,77.50
2018-09-24T04:57:26.413Z,76.80
2018-09-24T05:07:35.106Z,76.90
2018-09-24T05:17:43.856Z,76.40
2018-09-24T05:27:52.442Z,76.40
2018-09-24T05:38:00.900Z,76.90
2018-09-24T05:48:10.990Z,76.20
2018-09-24T05:58:19.565Z,75.70
2018-09-24T06:08:28.100Z,74.80
2018-09-24T06:18:37.084Z,75.10
2018-09-24T06:28:45.686Z,74.70
2018-09-24T06:38:54.509Z,75.10
2018-09-24T06:49:03.174Z,72.70
2018-09-24T06:59:11.888Z,73.90
2018-09-24T07:09:20.708Z,70.80
2018-09-24T07:19:29.712Z,69.30
2018-09-24T07:29:38.424Z,68.20
2018-09-24T07:39:47.059Z,69.50
2018-09-24T07:49:55.761Z,66.70
2018-09-24T08:00:04.434Z,64.00
2018-09-24T08:10:13.001Z,59.90
2018-09-24T08:20:21.872Z,59.80
2018-09-24T08:30:30.904Z,59.50
2018-09-24T08:40:39.441Z,57.90
2018-09-24T08:50:48.112Z,58.40
2018-09-24T09:00:56.902Z,58.00
2018-09-24T09:11:05.585Z,57.00
2018-09-24T09:21:14.221Z,56.80
2018-09-24T09:31:29.901Z,57.00
2018-09-24T09:41:38.797Z,55.50
2018-09-24T09:51:47.684Z,53.20
2018-09-24T10:01:56.496Z,51.20
2018-09-24T10:12:05.149Z,50.00
2018-09-24T10:22:13.767Z,49.20
2018-09-24T10:32:22.464Z,49.50
2018-09-24T10:42:31.033Z,49.00
2018-09-24T10:52:39.648Z,48.20
2018-09-24T11:02:48.317Z,45.60
2018-09-24T11:12:57.947Z,45.70
2018-09-24T11:23:06.749Z,43.90
2018-09-24T11:33:15.316Z,42.70
2018-09-24T11:43:24.010Z,41.60
2018-09-24T11:53:33.801Z,39.80
2018-09-24T12:03:42.654Z,39.20
2018-09-24T12:13:51.502Z,38.00
2018-09-24T12:24:00.312Z,38.30
2018-09-24T12:34:09.058Z,38.60
2018-09-24T12:44:17.639Z,36.40
2018-09-24T12:54:26.341Z,37.20
2018-09-24T13:04:34.912Z,37.10
2018-09-24T13:14:43.514Z,37.80
2018-09-24T13:24:51.959Z,38.50
2018-09-24T13:35:00.571Z,38.20
2018-09-24T13:45:09.247Z,39.20
2018-09-24T13:55:17.650Z,40.40
2018-09-24T14:05:26.402Z,40.30
2018-09-24T14:15:35.069Z,41.00
2018-09-24T14:25:43.790Z,41.40
2018-09-24T14:35:52.349Z,41.70
2018-09-24T14:46:01.138Z,41.40
2018-09-24T14:56:09.796Z,39.20
2018-09-24T15:06:18.760Z,39.40
2018-09-24T15:16:27.453Z,39.80
2018-09-24T15:26:36.057Z,41.60
2018-09-24T15:36:44.629Z,42.40
2018-09-24T15:46:53.389Z,41.90
2018-09-24T15:57:02.188Z,41.70
2018-09-24T16:07:10.958Z,42.30
2018-09-24T16:17:19.829Z,42.80
2018-09-24T16:27:28.632Z,42.70
2018-09-24T16:37:37.288Z,43.20
2018-09-24T16:47:46.136Z,42.80
2018-09-24T16:57:54.787Z,43.10
2018-09-24T17:08:04.079Z,43.30
2018-09-24T17:18:12.897Z,43.50
2018-09-24T17:28:21.533Z,43.90
2018-09-24T17:38:30.342Z,44.60
2018-09-24T17:48:38.980Z,45.20
2018-09-24T17:58:47.663Z,45.50
2018-09-24T18:08:56.532Z,46.00
2018-09-24T18:19:05.267Z,46.30
2018-09-24T18:29:14.008Z,47.00
2018-09-24T18:39:22.855Z,47.50
2018-09-24T18:49:31.660Z,47.70
2018-09-24T18:59:40.370Z,48.50
2018-09-24T19:09:49.103Z,48.50
2018-09-24T19:19:57.681Z,51.20
2018-09-24T19:30:07.449Z,51.30
2018-09-24T19:40:16.130Z,51.50
2018-09-24T19:50:24.915Z,51.90
2018-09-24T20:00:33.899Z,51.90
2018-09-24T20:10:42.597Z,51.70
2018-09-24T20:20:51.322Z,52.10
2018-09-24T20:31:00.284Z,52.10
2018-09-24T20:41:09.065Z,51.00
2018-09-24T20:51:17.753Z,50.80
2018-09-24T21:01:26.340Z,51.00
2018-09-24T21:11:35.077Z,51.40
2018-09-24T21:21:44.044Z,51.90
2018-09-24T21:31:52.662Z,52.50
2018-09-24T21:42:01.534Z,53.10
2018-09-24T21:52:10.331Z,53.70
2018-09-24T22:02:19.000Z,54.40
2018-09-24T22:12:28.685Z,55.10
2018-09-24T22:22:37.456Z,55.30
2018-09-24T22:32:46.032Z,55.60
2018-09-24T22:42:54.698Z,56.30
2018-09-24T22:53:04.338Z,56.90
2018-09-24T23:13:33.519Z,57.80
2018-09-24T23:23:42.182Z,58.10
2018-09-24T23:33:50.849Z,58.30
2018-09-24T23:43:59.505Z,58.90
2018-09-24T23:54:08.401Z,59.00
